sensor_id;sensor_type;location;lat;lon;timestamp;temperature;humidity
15217;DHT22;7711;46.634;14.318;2023-12-20T00:02:13;-1.70;99.90
15217;DHT22;7711;46.634;14.318;2023-12-20T00:04:42;-1.60;99.90
15217;DHT22;7711;46.634;14.318;2023-12-20T00:07:09;-1.80;99.90
15217;DHT22;7711;46.634;14.318;2023-12-20T00:09:36;-1.80;99.90
15217;DHT22;7711;46.634;14.318;2023-12-20T00:12:03;-1.70;99.90
15217;DHT22;7711;46.634;14.318;2023-12-20T00:14:30;-1.70;99.90
15217;DHT22;7711;46.634;14.318;2023-12-20T00:16:57;-1.70;99.90
15217;DHT22;7711;46.634;14.318;2023-12-20T00:19:24;-1.60;99.90
15217;DHT22;7711;46.634;14.318;2023-12-20T00:21:52;-1.80;99.90
15217;DHT22;7711;46.634;14.318;2023-12-20T00:24:19;-1.80;99.90
15217;DHT22;7711;46.634;14.318;2023-12-20T00:26:46;-1.70;99.90
15217;DHT22;7711;46.634;14.318;2023-12-20T00:29:13;-1.80;99.90
15217;DHT22;7711;46.634;14.318;2023-12-20T00:31:40;-1.80;99.90
15217;DHT22;7711;46.634;14.318;2023-12-20T00:34:07;-1.90;99.90
15217;DHT22;7711;46.634;14.318;2023-12-20T00:36:34;-1.90;99.90
15217;DHT22;7711;46.634;14.318;2023-12-20T00:39:03;-2.00;99.90
15217;DHT22;7711;46.634;14.318;2023-12-20T00:41:30;-1.90;99.90
15217;DHT22;7711;46.634;14.318;2023-12-20T00:43:57;-1.90;99.90
15217;DHT22;7711;46.634;14.318;2023-12-20T00:46:24;-2.00;99.90
15217;DHT22;7711;46.634;14.318;2023-12-20T00:48:50;-2.00;99.90
15217;DHT22;7711;46.634;14.318;2023-12-20T00:51:18;-1.90;99.90
15217;DHT22;7711;46.634;14.318;2023-12-20T00:53:45;-2.00;99.90
15217;DHT22;7711;46.634;14.318;2023-12-20T00:56:16;-1.60;99.90
15217;DHT22;7711;46.634;14.318;2023-12-20T00:58:43;-2.10;99.90
15217;DHT22;7711;46.634;14.318;2023-12-20T01:01:10;-2.10;99.90
15217;DHT22;7711;46.634;14.318;2023-12-20T01:03:37;-2.00;99.90
15217;DHT22;7711;46.634;14.318;2023-12-20T01:06:04;-2.00;99.90
15217;DHT22;7711;46.634;14.318;2023-12-20T01:08:31;-2.10;99.90
15217;DHT22;7711;46.634;14.318;2023-12-20T01:11:00;-2.10;99.90
15217;DHT22;7711;46.634;14.318;2023-12-20T01:13:28;-2.10;99.90
15217;DHT22;7711;46.634;14.318;2023-12-20T01:15:55;-2.10;99.90
15217;DHT22;7711;46.634;14.318;2023-12-20T01:18:21;-2.10;99.90
15217;DHT22;7711;46.634;14.318;2023-12-20T01:20:48;-2.10;99.90
15217;DHT22;7711;46.634;14.318;2023-12-20T01:23:15;-2.20;99.90
15217;DHT22;7711;46.634;14.318;2023-12-20T01:25:42;-2.10;99.90
15217;DHT22;7711;46.634;14.318;2023-12-20T01:28:09;-2.20;99.90
15217;DHT22;7711;46.634;14.318;2023-12-20T01:30:38;-2.20;99.90
15217;DHT22;7711;46.634;14.318;2023-12-20T01:33:05;-2.20;99.90
15217;DHT22;7711;46.634;14.318;2023-12-20T01:35:32;-2.20;99.90
15217;DHT22;7711;46.634;14.318;2023-12-20T01:37:59;-2.20;99.90
15217;DHT22;7711;46.634;14.318;2023-12-20T01:40:25;-2.20;99.90
15217;DHT22;7711;46.634;14.318;2023-12-20T01:42:59;-2.10;99.90
15217;DHT22;7711;46.634;14.318;2023-12-20T01:45:26;-2.20;99.90
15217;DHT22;7711;46.634;14.318;2023-12-20T01:47:57;-2.20;99.90
15217;DHT22;7711;46.634;14.318;2023-12-20T01:50:25;-2.30;99.90
15217;DHT22;7711;46.634;14.318;2023-12-20T01:52:54;-2.20;99.90
15217;DHT22;7711;46.634;14.318;2023-12-20T01:55:23;-2.20;99.90
15217;DHT22;7711;46.634;14.318;2023-12-20T01:57:51;-2.10;99.90
15217;DHT22;7711;46.634;14.318;2023-12-20T02:00:18;-2.20;99.90
15217;DHT22;7711;46.634;14.318;2023-12-20T02:02:50;-2.10;99.90
15217;DHT22;7711;46.634;14.318;2023-12-20T02:05:21;-2.20;99.90
15217;DHT22;7711;46.634;14.318;2023-12-20T02:07:48;-2.20;99.90
15217;DHT22;7711;46.634;14.318;2023-12-20T02:10:16;-2.40;99.90
15217;DHT22;7711;46.634;14.318;2023-12-20T02:12:42;-2.50;99.90
15217;DHT22;7711;46.634;14.318;2023-12-20T02:15:09;-2.50;99.90
15217;DHT22;7711;46.634;14.318;2023-12-20T02:17:36;-2.40;99.90
15217;DHT22;7711;46.634;14.318;2023-12-20T02:20:04;-2.50;99.90
15217;DHT22;7711;46.634;14.318;2023-12-20T02:22:33;-2.50;99.90
15217;DHT22;7711;46.634;14.318;2023-12-20T02:25:00;-2.50;99.90
15217;DHT22;7711;46.634;14.318;2023-12-20T02:27:27;-2.40;99.90
15217;DHT22;7711;46.634;14.318;2023-12-20T02:29:55;-2.50;99.90
15217;DHT22;7711;46.634;14.318;2023-12-20T02:32:23;-2.40;99.90
15217;DHT22;7711;46.634;14.318;2023-12-20T02:34:51;-2.50;99.90
15217;DHT22;7711;46.634;14.318;2023-12-20T02:37:18;-2.50;99.90
15217;DHT22;7711;46.634;14.318;2023-12-20T02:39:47;-2.50;99.90
15217;DHT22;7711;46.634;14.318;2023-12-20T02:42:14;-2.50;99.90
15217;DHT22;7711;46.634;14.318;2023-12-20T02:44:41;-2.40;99.90
15217;DHT22;7711;46.634;14.318;2023-12-20T02:47:08;-2.40;99.90
15217;DHT22;7711;46.634;14.318;2023-12-20T02:49:35;-2.20;99.90
15217;DHT22;7711;46.634;14.318;2023-12-20T02:52:02;-2.40;99.90
15217;DHT22;7711;46.634;14.318;2023-12-20T02:54:29;-2.40;99.90
15217;DHT22;7711;46.634;14.318;2023-12-20T02:56:57;-2.30;99.90
15217;DHT22;7711;46.634;14.318;2023-12-20T02:59:24;-2.20;99.90
15217;DHT22;7711;46.634;14.318;2023-12-20T03:01:51;-2.20;99.90
15217;DHT22;7711;46.634;14.318;2023-12-20T03:04:18;-2.20;99.90
15217;DHT22;7711;46.634;14.318;2023-12-20T03:06:45;-2.20;99.90
15217;DHT22;7711;46.634;14.318;2023-12-20T03:09:12;-2.20;99.90
15217;DHT22;7711;46.634;14.318;2023-12-20T03:11:39;-2.10;99.90
15217;DHT22;7711;46.634;14.318;2023-12-20T03:14:07;-2.20;99.90
15217;DHT22;7711;46.634;14.318;2023-12-20T03:16:34;-1.80;99.90
15217;DHT22;7711;46.634;14.318;2023-12-20T03:19:01;-2.10;99.90
15217;DHT22;7711;46.634;14.318;2023-12-20T03:21:28;-2.20;99.90
15217;DHT22;7711;46.634;14.318;2023-12-20T03:23:55;-2.30;99.90
15217;DHT22;7711;46.634;14.318;2023-12-20T03:26:22;-2.20;99.90
15217;DHT22;7711;46.634;14.318;2023-12-20T03:28:49;-2.10;99.90
15217;DHT22;7711;46.634;14.318;2023-12-20T03:31:19;-2.10;99.90
15217;DHT22;7711;46.634;14.318;2023-12-20T03:33:46;-2.40;99.90
15217;DHT22;7711;46.634;14.318;2023-12-20T03:36:13;-2.30;99.90
15217;DHT22;7711;46.634;14.318;2023-12-20T03:38:40;-2.30;99.90
15217;DHT22;7711;46.634;14.318;2023-12-20T03:41:07;-2.20;99.90
15217;DHT22;7711;46.634;14.318;2023-12-20T03:43:34;-2.20;99.90
15217;DHT22;7711;46.634;14.318;2023-12-20T03:46:02;-2.10;99.90
15217;DHT22;7711;46.634;14.318;2023-12-20T03:48:31;-2.10;99.90
15217;DHT22;7711;46.634;14.318;2023-12-20T03:50:58;-2.30;99.90
15217;DHT22;7711;46.634;14.318;2023-12-20T03:53:24;-2.40;99.90
15217;DHT22;7711;46.634;14.318;2023-12-20T03:55:51;-2.40;99.90
15217;DHT22;7711;46.634;14.318;2023-12-20T03:58:18;-2.40;99.90
15217;DHT22;7711;46.634;14.318;2023-12-20T04:00:46;-2.00;99.90
15217;DHT22;7711;46.634;14.318;2023-12-20T04:03:13;-2.40;99.90
15217;DHT22;7711;46.634;14.318;2023-12-20T04:05:41;-2.40;99.90
15217;DHT22;7711;46.634;14.318;2023-12-20T04:08:09;-2.50;99.90
15217;DHT22;7711;46.634;14.318;2023-12-20T04:10:36;-2.10;99.90
15217;DHT22;7711;46.634;14.318;2023-12-20T04:13:04;-2.40;99.90
15217;DHT22;7711;46.634;14.318;2023-12-20T04:15:31;-2.70;99.90
15217;DHT22;7711;46.634;14.318;2023-12-20T04:17:58;-2.40;99.90
15217;DHT22;7711;46.634;14.318;2023-12-20T04:20:25;-2.70;99.90
15217;DHT22;7711;46.634;14.318;2023-12-20T04:22:54;-2.50;99.90
15217;DHT22;7711;46.634;14.318;2023-12-20T04:25:20;-2.80;99.90
15217;DHT22;7711;46.634;14.318;2023-12-20T04:27:48;-2.70;99.90
15217;DHT22;7711;46.634;14.318;2023-12-20T04:30:14;-2.90;99.90
15217;DHT22;7711;46.634;14.318;2023-12-20T04:32:41;-2.90;99.90
15217;DHT22;7711;46.634;14.318;2023-12-20T04:35:08;-2.90;99.90
15217;DHT22;7711;46.634;14.318;2023-12-20T04:37:35;-2.80;99.90
15217;DHT22;7711;46.634;14.318;2023-12-20T04:40:05;-2.90;99.90
15217;DHT22;7711;46.634;14.318;2023-12-20T04:42:33;-2.90;99.90
15217;DHT22;7711;46.634;14.318;2023-12-20T04:45:00;-3.00;99.90
15217;DHT22;7711;46.634;14.318;2023-12-20T04:47:27;-2.90;99.90
15217;DHT22;7711;46.634;14.318;2023-12-20T04:49:54;-2.90;99.90
15217;DHT22;7711;46.634;14.318;2023-12-20T04:52:21;-2.90;99.90
15217;DHT22;7711;46.634;14.318;2023-12-20T04:54:48;-3.00;99.90
15217;DHT22;7711;46.634;14.318;2023-12-20T04:57:16;-3.00;99.90
15217;DHT22;7711;46.634;14.318;2023-12-20T04:59:43;-2.90;99.90
15217;DHT22;7711;46.634;14.318;2023-12-20T05:02:11;-3.00;99.90
15217;DHT22;7711;46.634;14.318;2023-12-20T05:04:38;-2.90;99.90
15217;DHT22;7711;46.634;14.318;2023-12-20T05:07:05;-3.00;99.90
15217;DHT22;7711;46.634;14.318;2023-12-20T05:09:32;-3.00;99.90
15217;DHT22;7711;46.634;14.318;2023-12-20T05:11:59;-3.10;99.90
15217;DHT22;7711;46.634;14.318;2023-12-20T05:14:27;-2.80;99.90
15217;DHT22;7711;46.634;14.318;2023-12-20T05:16:54;-3.00;99.90
15217;DHT22;7711;46.634;14.318;2023-12-20T05:19:22;-3.00;99.90
15217;DHT22;7711;46.634;14.318;2023-12-20T05:21:49;-2.90;30.40
15217;DHT22;7711;46.634;14.318;2023-12-20T05:24:16;-3.10;94.00
15217;DHT22;7711;46.634;14.318;2023-12-20T05:26:43;-2.80;99.90
15217;DHT22;7711;46.634;14.318;2023-12-20T05:29:10;-3.00;99.90
15217;DHT22;7711;46.634;14.318;2023-12-20T05:31:38;-3.00;99.90
15217;DHT22;7711;46.634;14.318;2023-12-20T05:34:05;-2.60;97.70
15217;DHT22;7711;46.634;14.318;2023-12-20T05:36:32;-3.10;1.00
15217;DHT22;7711;46.634;14.318;2023-12-20T05:38:59;-2.70;1.00
15217;DHT22;7711;46.634;14.318;2023-12-20T05:41:26;-3.10;1.00
15217;DHT22;7711;46.634;14.318;2023-12-20T05:43:53;-3.10;1.00
15217;DHT22;7711;46.634;14.318;2023-12-20T05:46:19;-2.70;1.00
15217;DHT22;7711;46.634;14.318;2023-12-20T05:48:48;-3.00;1.00
15217;DHT22;7711;46.634;14.318;2023-12-20T05:51:15;-3.10;1.00
15217;DHT22;7711;46.634;14.318;2023-12-20T05:53:42;-3.10;1.00
15217;DHT22;7711;46.634;14.318;2023-12-20T05:56:09;-3.20;1.00
15217;DHT22;7711;46.634;14.318;2023-12-20T05:58:38;-3.20;1.00
15217;DHT22;7711;46.634;14.318;2023-12-20T06:01:05;-3.20;1.00
15217;DHT22;7711;46.634;14.318;2023-12-20T06:03:34;-3.20;1.00
15217;DHT22;7711;46.634;14.318;2023-12-20T06:06:06;-3.20;1.00
15217;DHT22;7711;46.634;14.318;2023-12-20T06:08:33;-3.10;2.60
15217;DHT22;7711;46.634;14.318;2023-12-20T06:11:00;-3.10;1.00
15217;DHT22;7711;46.634;14.318;2023-12-20T06:13:27;-3.10;9.80
15217;DHT22;7711;46.634;14.318;2023-12-20T06:15:54;-3.10;17.70
15217;DHT22;7711;46.634;14.318;2023-12-20T06:18:22;-3.00;43.20
15217;DHT22;7711;46.634;14.318;2023-12-20T06:20:50;-3.10;30.60
15217;DHT22;7711;46.634;14.318;2023-12-20T06:23:18;-3.10;85.10
15217;DHT22;7711;46.634;14.318;2023-12-20T06:25:45;-3.00;99.30
15217;DHT22;7711;46.634;14.318;2023-12-20T06:28:12;-2.90;49.60
15217;DHT22;7711;46.634;14.318;2023-12-20T06:30:40;-2.70;42.20
15217;DHT22;7711;46.634;14.318;2023-12-20T06:33:07;-2.90;21.70
15217;DHT22;7711;46.634;14.318;2023-12-20T06:35:35;-3.00;41.40
15217;DHT22;7711;46.634;14.318;2023-12-20T06:38:02;-3.10;14.90
15217;DHT22;7711;46.634;14.318;2023-12-20T06:40:31;-3.10;15.00
15217;DHT22;7711;46.634;14.318;2023-12-20T06:42:58;-3.20;13.10
15217;DHT22;7711;46.634;14.318;2023-12-20T06:45:25;-3.20;18.20
15217;DHT22;7711;46.634;14.318;2023-12-20T06:47:52;-3.10;44.40
15217;DHT22;7711;46.634;14.318;2023-12-20T06:50:20;-3.10;55.80
15217;DHT22;7711;46.634;14.318;2023-12-20T06:52:47;-3.10;86.30
15217;DHT22;7711;46.634;14.318;2023-12-20T06:55:14;-3.00;99.50
15217;DHT22;7711;46.634;14.318;2023-12-20T06:57:44;-3.00;83.20
15217;DHT22;7711;46.634;14.318;2023-12-20T07:00:12;-2.70;99.90
15217;DHT22;7711;46.634;14.318;2023-12-20T07:02:39;-2.80;99.90
15217;DHT22;7711;46.634;14.318;2023-12-20T07:05:06;-2.60;8.30
15217;DHT22;7711;46.634;14.318;2023-12-20T07:07:33;-2.80;2.50
15217;DHT22;7711;46.634;14.318;2023-12-20T07:10:00;-2.80;1.00
15217;DHT22;7711;46.634;14.318;2023-12-20T07:12:27;-2.80;1.00
15217;DHT22;7711;46.634;14.318;2023-12-20T07:14:55;-2.40;1.00
15217;DHT22;7711;46.634;14.318;2023-12-20T07:17:22;-2.60;1.00
15217;DHT22;7711;46.634;14.318;2023-12-20T07:19:49;-2.60;1.00
15217;DHT22;7711;46.634;14.318;2023-12-20T07:22:16;-2.60;1.00
15217;DHT22;7711;46.634;14.318;2023-12-20T07:24:43;-2.60;1.00
15217;DHT22;7711;46.634;14.318;2023-12-20T07:27:10;-2.50;1.00
15217;DHT22;7711;46.634;14.318;2023-12-20T07:29:37;-2.60;1.00
15217;DHT22;7711;46.634;14.318;2023-12-20T07:32:06;-2.60;1.00
15217;DHT22;7711;46.634;14.318;2023-12-20T07:34:34;-2.50;1.00
15217;DHT22;7711;46.634;14.318;2023-12-20T07:37:00;-2.20;1.00
15217;DHT22;7711;46.634;14.318;2023-12-20T07:39:27;-2.50;1.00
15217;DHT22;7711;46.634;14.318;2023-12-20T07:41:54;-2.40;1.00
15217;DHT22;7711;46.634;14.318;2023-12-20T07:44:21;-2.40;1.00
15217;DHT22;7711;46.634;14.318;2023-12-20T07:46:48;-2.10;1.00
15217;DHT22;7711;46.634;14.318;2023-12-20T07:49:17;-2.20;1.00
15217;DHT22;7711;46.634;14.318;2023-12-20T07:51:43;-2.30;1.00
15217;DHT22;7711;46.634;14.318;2023-12-20T07:54:10;-2.40;1.00
15217;DHT22;7711;46.634;14.318;2023-12-20T07:56:37;-2.40;99.90
15217;DHT22;7711;46.634;14.318;2023-12-20T07:59:05;-2.20;99.90
15217;DHT22;7711;46.634;14.318;2023-12-20T08:01:32;-2.30;99.90
15217;DHT22;7711;46.634;14.318;2023-12-20T08:03:59;-2.20;99.90
15217;DHT22;7711;46.634;14.318;2023-12-20T08:06:27;-2.30;99.90
15217;DHT22;7711;46.634;14.318;2023-12-20T08:08:54;-2.20;99.90
15217;DHT22;7711;46.634;14.318;2023-12-20T08:11:21;-2.10;99.90
15217;DHT22;7711;46.634;14.318;2023-12-20T08:13:48;-2.10;99.90
15217;DHT22;7711;46.634;14.318;2023-12-20T08:16:15;-2.10;99.90
15217;DHT22;7711;46.634;14.318;2023-12-20T08:18:43;-2.00;99.90
15217;DHT22;7711;46.634;14.318;2023-12-20T08:21:10;-1.90;99.90
15217;DHT22;7711;46.634;14.318;2023-12-20T08:23:38;-1.80;99.90
15217;DHT22;7711;46.634;14.318;2023-12-20T08:26:05;-1.60;99.90
15217;DHT22;7711;46.634;14.318;2023-12-20T08:28:32;-1.70;43.90
15217;DHT22;7711;46.634;14.318;2023-12-20T08:30:58;-1.50;19.30
15217;DHT22;7711;46.634;14.318;2023-12-20T08:33:25;-1.40;1.00
15217;DHT22;7711;46.634;14.318;2023-12-20T08:35:52;-1.40;1.00
15217;DHT22;7711;46.634;14.318;2023-12-20T08:38:19;-1.30;1.00
15217;DHT22;7711;46.634;14.318;2023-12-20T08:40:47;-1.00;1.00
15217;DHT22;7711;46.634;14.318;2023-12-20T08:43:15;-0.90;1.00
15217;DHT22;7711;46.634;14.318;2023-12-20T08:45:42;-0.70;1.00
15217;DHT22;7711;46.634;14.318;2023-12-20T08:48:09;-1.10;1.00
15217;DHT22;7711;46.634;14.318;2023-12-20T08:50:36;-0.80;1.00
15217;DHT22;7711;46.634;14.318;2023-12-20T08:53:03;-1.20;1.00
15217;DHT22;7711;46.634;14.318;2023-12-20T08:55:30;-1.10;1.00
15217;DHT22;7711;46.634;14.318;2023-12-20T08:57:58;-1.00;1.00
15217;DHT22;7711;46.634;14.318;2023-12-20T09:00:25;-1.10;1.00
15217;DHT22;7711;46.634;14.318;2023-12-20T09:02:53;-1.10;1.00
15217;DHT22;7711;46.634;14.318;2023-12-20T09:05:20;-1.10;1.00
15217;DHT22;7711;46.634;14.318;2023-12-20T09:07:48;-0.90;1.00
15217;DHT22;7711;46.634;14.318;2023-12-20T09:10:15;-0.90;1.00
15217;DHT22;7711;46.634;14.318;2023-12-20T09:12:41;-0.60;1.00
15217;DHT22;7711;46.634;14.318;2023-12-20T09:15:10;-0.50;1.00
15217;DHT22;7711;46.634;14.318;2023-12-20T09:17:37;-0.30;1.00
15217;DHT22;7711;46.634;14.318;2023-12-20T09:20:04;-0.20;1.00
15217;DHT22;7711;46.634;14.318;2023-12-20T09:22:33;-0.30;1.00
15217;DHT22;7711;46.634;14.318;2023-12-20T09:25:00;-0.60;1.00
15217;DHT22;7711;46.634;14.318;2023-12-20T09:27:27;-0.70;1.00
15217;DHT22;7711;46.634;14.318;2023-12-20T09:29:54;-0.70;1.00
15217;DHT22;7711;46.634;14.318;2023-12-20T09:32:22;-0.80;1.00
15217;DHT22;7711;46.634;14.318;2023-12-20T09:34:50;-0.80;1.00
15217;DHT22;7711;46.634;14.318;2023-12-20T09:37:16;-0.70;1.00
15217;DHT22;7711;46.634;14.318;2023-12-20T09:39:43;-0.80;1.00
15217;DHT22;7711;46.634;14.318;2023-12-20T09:42:12;-0.70;1.00
15217;DHT22;7711;46.634;14.318;2023-12-20T09:44:42;-0.80;1.00
15217;DHT22;7711;46.634;14.318;2023-12-20T09:47:10;-0.70;1.00
15217;DHT22;7711;46.634;14.318;2023-12-20T09:49:38;-0.70;1.00
15217;DHT22;7711;46.634;14.318;2023-12-20T09:52:07;-0.70;1.00
15217;DHT22;7711;46.634;14.318;2023-12-20T09:54:36;-0.70;1.00
15217;DHT22;7711;46.634;14.318;2023-12-20T09:57:04;-0.50;1.00
15217;DHT22;7711;46.634;14.318;2023-12-20T09:59:31;-0.40;1.00
15217;DHT22;7711;46.634;14.318;2023-12-20T10:01:58;-0.20;1.00
15217;DHT22;7711;46.634;14.318;2023-12-20T10:04:31;-0.20;1.00
15217;DHT22;7711;46.634;14.318;2023-12-20T10:07:03;-0.10;1.00
15217;DHT22;7711;46.634;14.318;2023-12-20T10:09:31;0.00;1.00
15217;DHT22;7711;46.634;14.318;2023-12-20T10:11:58;-0.10;1.00
15217;DHT22;7711;46.634;14.318;2023-12-20T10:14:25;0.00;1.00
15217;DHT22;7711;46.634;14.318;2023-12-20T10:16:52;0.20;1.00
15217;DHT22;7711;46.634;14.318;2023-12-20T10:19:21;0.40;1.00
15217;DHT22;7711;46.634;14.318;2023-12-20T10:21:48;0.40;1.00
15217;DHT22;7711;46.634;14.318;2023-12-20T10:24:18;0.20;1.00
15217;DHT22;7711;46.634;14.318;2023-12-20T10:26:45;-0.10;1.00
15217;DHT22;7711;46.634;14.318;2023-12-20T10:29:12;-0.10;1.00
15217;DHT22;7711;46.634;14.318;2023-12-20T10:31:39;-0.20;1.00
15217;DHT22;7711;46.634;14.318;2023-12-20T10:34:06;-0.20;1.00
15217;DHT22;7711;46.634;14.318;2023-12-20T10:36:33;-0.10;1.00
15217;DHT22;7711;46.634;14.318;2023-12-20T10:39:02;0.00;1.00
15217;DHT22;7711;46.634;14.318;2023-12-20T10:41:31;0.10;1.00
15217;DHT22;7711;46.634;14.318;2023-12-20T10:44:00;0.30;1.00
15217;DHT22;7711;46.634;14.318;2023-12-20T10:46:28;0.30;1.00
15217;DHT22;7711;46.634;14.318;2023-12-20T10:48:56;0.30;1.00
15217;DHT22;7711;46.634;14.318;2023-12-20T10:51:24;0.30;1.00
15217;DHT22;7711;46.634;14.318;2023-12-20T10:53:52;0.40;1.00
15217;DHT22;7711;46.634;14.318;2023-12-20T10:56:20;0.40;1.00
15217;DHT22;7711;46.634;14.318;2023-12-20T10:58:50;0.30;1.00
15217;DHT22;7711;46.634;14.318;2023-12-20T11:01:18;0.30;1.00
15217;DHT22;7711;46.634;14.318;2023-12-20T11:03:49;0.30;1.00
15217;DHT22;7711;46.634;14.318;2023-12-20T11:06:27;0.20;1.00
15217;DHT22;7711;46.634;14.318;2023-12-20T11:09:06;0.20;1.00
15217;DHT22;7711;46.634;14.318;2023-12-20T11:11:46;0.30;1.00
15217;DHT22;7711;46.634;14.318;2023-12-20T11:14:22;0.20;1.00
15217;DHT22;7711;46.634;14.318;2023-12-20T11:16:50;0.10;1.00
15217;DHT22;7711;46.634;14.318;2023-12-20T11:19:17;0.00;1.00
15217;DHT22;7711;46.634;14.318;2023-12-20T11:21:46;0.10;1.00
15217;DHT22;7711;46.634;14.318;2023-12-20T11:24:13;0.20;1.00
15217;DHT22;7711;46.634;14.318;2023-12-20T11:26:46;0.20;1.00
15217;DHT22;7711;46.634;14.318;2023-12-20T11:29:34;0.30;1.00
15217;DHT22;7711;46.634;14.318;2023-12-20T11:32:02;0.50;1.00
15217;DHT22;7711;46.634;14.318;2023-12-20T11:34:32;0.60;1.00
15217;DHT22;7711;46.634;14.318;2023-12-20T11:37:01;0.60;1.00
15217;DHT22;7711;46.634;14.318;2023-12-20T11:39:30;0.70;1.00
15217;DHT22;7711;46.634;14.318;2023-12-20T11:42:04;0.90;1.00
15217;DHT22;7711;46.634;14.318;2023-12-20T11:44:31;1.00;1.00
15217;DHT22;7711;46.634;14.318;2023-12-20T11:47:00;1.00;1.00
15217;DHT22;7711;46.634;14.318;2023-12-20T11:49:27;1.00;1.00
15217;DHT22;7711;46.634;14.318;2023-12-20T11:51:54;0.90;1.00
15217;DHT22;7711;46.634;14.318;2023-12-20T11:54:22;1.00;1.00
15217;DHT22;7711;46.634;14.318;2023-12-20T11:56:49;1.20;1.00
15217;DHT22;7711;46.634;14.318;2023-12-20T11:59:15;1.10;1.00
15217;DHT22;7711;46.634;14.318;2023-12-20T12:01:48;1.10;1.00
15217;DHT22;7711;46.634;14.318;2023-12-20T12:04:17;0.90;1.00
15217;DHT22;7711;46.634;14.318;2023-12-20T12:06:45;0.90;1.00
15217;DHT22;7711;46.634;14.318;2023-12-20T12:09:13;0.60;1.00
15217;DHT22;7711;46.634;14.318;2023-12-20T12:11:40;0.70;1.00
15217;DHT22;7711;46.634;14.318;2023-12-20T12:14:08;0.60;1.00
15217;DHT22;7711;46.634;14.318;2023-12-20T12:16:35;0.70;1.00
15217;DHT22;7711;46.634;14.318;2023-12-20T12:19:02;0.70;1.00
15217;DHT22;7711;46.634;14.318;2023-12-20T12:21:31;0.70;1.00
15217;DHT22;7711;46.634;14.318;2023-12-20T12:24:07;0.80;1.00
15217;DHT22;7711;46.634;14.318;2023-12-20T12:26:33;0.50;1.00
15217;DHT22;7711;46.634;14.318;2023-12-20T12:29:00;0.50;1.00
15217;DHT22;7711;46.634;14.318;2023-12-20T12:31:28;0.60;1.00
15217;DHT22;7711;46.634;14.318;2023-12-20T12:33:56;0.50;1.00
15217;DHT22;7711;46.634;14.318;2023-12-20T12:36:23;0.70;1.00
15217;DHT22;7711;46.634;14.318;2023-12-20T12:38:51;0.80;1.00
15217;DHT22;7711;46.634;14.318;2023-12-20T12:41:18;0.90;1.00
15217;DHT22;7711;46.634;14.318;2023-12-20T12:43:45;1.00;1.00
15217;DHT22;7711;46.634;14.318;2023-12-20T12:46:12;1.00;1.00
15217;DHT22;7711;46.634;14.318;2023-12-20T12:48:39;0.90;1.00
15217;DHT22;7711;46.634;14.318;2023-12-20T12:51:06;1.10;1.00
15217;DHT22;7711;46.634;14.318;2023-12-20T12:53:38;1.00;1.00
15217;DHT22;7711;46.634;14.318;2023-12-20T12:56:06;1.10;1.00
15217;DHT22;7711;46.634;14.318;2023-12-20T12:58:33;1.10;1.00
15217;DHT22;7711;46.634;14.318;2023-12-20T13:01:00;1.00;1.00
15217;DHT22;7711;46.634;14.318;2023-12-20T13:03:29;0.90;1.00
15217;DHT22;7711;46.634;14.318;2023-12-20T13:05:56;0.80;1.00
15217;DHT22;7711;46.634;14.318;2023-12-20T13:08:23;0.90;1.00
15217;DHT22;7711;46.634;14.318;2023-12-20T13:10:50;1.00;1.00
15217;DHT22;7711;46.634;14.318;2023-12-20T13:13:18;1.10;1.00
15217;DHT22;7711;46.634;14.318;2023-12-20T13:15:45;1.10;1.00
15217;DHT22;7711;46.634;14.318;2023-12-20T13:18:16;1.10;1.00
15217;DHT22;7711;46.634;14.318;2023-12-20T13:20:43;1.10;1.00
15217;DHT22;7711;46.634;14.318;2023-12-20T13:23:10;1.00;1.00
15217;DHT22;7711;46.634;14.318;2023-12-20T13:25:37;0.80;1.00
15217;DHT22;7711;46.634;14.318;2023-12-20T13:28:05;1.00;1.00
15217;DHT22;7711;46.634;14.318;2023-12-20T13:30:33;1.00;1.00
15217;DHT22;7711;46.634;14.318;2023-12-20T13:33:01;1.00;1.00
15217;DHT22;7711;46.634;14.318;2023-12-20T13:35:28;1.00;1.00
15217;DHT22;7711;46.634;14.318;2023-12-20T13:37:55;0.80;1.00
15217;DHT22;7711;46.634;14.318;2023-12-20T13:40:22;0.60;1.00
15217;DHT22;7711;46.634;14.318;2023-12-20T13:42:48;0.60;1.00
15217;DHT22;7711;46.634;14.318;2023-12-20T13:45:16;0.60;1.00
15217;DHT22;7711;46.634;14.318;2023-12-20T13:47:44;0.60;1.00
15217;DHT22;7711;46.634;14.318;2023-12-20T13:50:11;0.60;1.00
15217;DHT22;7711;46.634;14.318;2023-12-20T13:52:38;0.50;1.00
15217;DHT22;7711;46.634;14.318;2023-12-20T13:55:05;0.70;1.00
15217;DHT22;7711;46.634;14.318;2023-12-20T13:57:33;0.70;1.00
15217;DHT22;7711;46.634;14.318;2023-12-20T14:00:03;0.50;1.00
15217;DHT22;7711;46.634;14.318;2023-12-20T14:02:30;0.60;1.00
15217;DHT22;7711;46.634;14.318;2023-12-20T14:04:59;0.60;1.00
15217;DHT22;7711;46.634;14.318;2023-12-20T14:07:27;0.50;1.00
15217;DHT22;7711;46.634;14.318;2023-12-20T14:09:54;0.50;1.00
15217;DHT22;7711;46.634;14.318;2023-12-20T14:12:21;0.50;1.00
15217;DHT22;7711;46.634;14.318;2023-12-20T14:14:47;0.60;1.00
15217;DHT22;7711;46.634;14.318;2023-12-20T14:17:14;0.70;1.00
15217;DHT22;7711;46.634;14.318;2023-12-20T14:19:41;0.50;1.00
15217;DHT22;7711;46.634;14.318;2023-12-20T14:22:09;0.50;1.00
15217;DHT22;7711;46.634;14.318;2023-12-20T14:24:36;0.50;1.00
15217;DHT22;7711;46.634;14.318;2023-12-20T14:27:03;0.50;1.00
15217;DHT22;7711;46.634;14.318;2023-12-20T14:29:30;0.50;1.00
15217;DHT22;7711;46.634;14.318;2023-12-20T14:31:57;0.40;1.00
15217;DHT22;7711;46.634;14.318;2023-12-20T14:34:24;0.30;1.00
15217;DHT22;7711;46.634;14.318;2023-12-20T14:36:52;0.30;1.00
15217;DHT22;7711;46.634;14.318;2023-12-20T14:39:20;0.40;1.00
15217;DHT22;7711;46.634;14.318;2023-12-20T14:41:48;0.50;1.00
15217;DHT22;7711;46.634;14.318;2023-12-20T14:44:15;0.50;1.00
15217;DHT22;7711;46.634;14.318;2023-12-20T14:46:42;0.50;1.00
15217;DHT22;7711;46.634;14.318;2023-12-20T14:49:09;0.50;1.00
15217;DHT22;7711;46.634;14.318;2023-12-20T14:51:36;0.50;1.00
15217;DHT22;7711;46.634;14.318;2023-12-20T14:54:04;0.40;1.00
15217;DHT22;7711;46.634;14.318;2023-12-20T14:56:35;0.30;1.00
15217;DHT22;7711;46.634;14.318;2023-12-20T14:59:02;0.20;1.00
15217;DHT22;7711;46.634;14.318;2023-12-20T15:01:29;0.10;1.00
15217;DHT22;7711;46.634;14.318;2023-12-20T15:03:56;0.10;1.00
15217;DHT22;7711;46.634;14.318;2023-12-20T15:06:23;0.10;1.00
15217;DHT22;7711;46.634;14.318;2023-12-20T15:08:51;0.00;1.00
15217;DHT22;7711;46.634;14.318;2023-12-20T15:11:18;-0.10;1.00
15217;DHT22;7711;46.634;14.318;2023-12-20T15:13:46;-0.10;1.00
15217;DHT22;7711;46.634;14.318;2023-12-20T15:16:20;-0.20;1.00
15217;DHT22;7711;46.634;14.318;2023-12-20T15:18:47;-0.10;1.00
15217;DHT22;7711;46.634;14.318;2023-12-20T15:21:14;-0.10;1.00
15217;DHT22;7711;46.634;14.318;2023-12-20T15:23:41;-0.20;1.00
15217;DHT22;7711;46.634;14.318;2023-12-20T15:26:18;-0.20;5.50
15217;DHT22;7711;46.634;14.318;2023-12-20T15:28:46;-0.20;39.80
15217;DHT22;7711;46.634;14.318;2023-12-20T15:31:13;-0.20;84.10
15217;DHT22;7711;46.634;14.318;2023-12-20T15:33:40;-0.30;98.80
15217;DHT22;7711;46.634;14.318;2023-12-20T15:36:07;0.00;99.90
15217;DHT22;7711;46.634;14.318;2023-12-20T15:38:34;-0.20;99.90
15217;DHT22;7711;46.634;14.318;2023-12-20T15:41:01;-0.20;99.90
15217;DHT22;7711;46.634;14.318;2023-12-20T15:43:28;-0.20;99.90
15217;DHT22;7711;46.634;14.318;2023-12-20T15:45:57;-0.10;99.90